createdAt,value
2018-09-29T00:03:08.146Z,92.80
2018-09-29T00:07:12.499Z,92.80
2018-09-29T00:11:17.060Z,92.90
2018-09-29T00:15:21.324Z,92.70
2018-09-29T00:19:25.507Z,92.50
2018-09-29T00:23:29.578Z,92.50
2018-09-29T00:27:33.990Z,92.60
2018-09-29T00:31:38.267Z,92.70
2018-09-29T00:35:43.512Z,92.90
2018-09-29T00:39:48.224Z,92.80
2018-09-29T00:43:52.524Z,92.90
2018-09-29T00:47:56.804Z,93.10
2018-09-29T00:52:01.153Z,93.20
2018-09-29T00:56:05.340Z,93.40
2018-09-29T01:00:09.504Z,93.40
2018-09-29T01:04:13.739Z,93.20
2018-09-29T01:08:18.961Z,93.30
2018-09-29T01:12:23.000Z,93.30
2018-09-29T01:16:27.075Z,93.30
2018-09-29T01:20:31.143Z,93.50
2018-09-29T01:24:35.216Z,93.50
2018-09-29T01:28:39.518Z,93.50
2018-09-29T01:32:44.774Z,93.60
2018-09-29T01:36:49.166Z,93.60
2018-09-29T01:40:53.219Z,93.50
2018-09-29T01:44:57.314Z,93.70
2018-09-29T01:49:01.497Z,93.60
2018-09-29T01:53:05.598Z,93.60
2018-09-29T01:57:09.841Z,93.70
2018-09-29T02:01:14.404Z,93.80
2018-09-29T02:05:18.664Z,93.90
2018-09-29T02:09:22.697Z,93.90
2018-09-29T02:13:26.884Z,94.00
2018-09-29T02:17:30.903Z,93.70
2018-09-29T02:21:35.254Z,93.60
2018-09-29T02:25:39.283Z,94.00
2018-09-29T02:29:43.793Z,93.90
2018-09-29T02:33:48.146Z,94.00
2018-09-29T02:37:52.215Z,94.00
2018-09-29T02:41:56.510Z,94.00
2018-09-29T02:46:00.647Z,94.20
2018-09-29T02:50:04.929Z,94.50
2018-09-29T02:54:09.024Z,94.70
2018-09-29T02:58:13.132Z,94.50
2018-09-29T03:02:17.279Z,94.70
2018-09-29T03:06:21.458Z,94.60
2018-09-29T03:10:25.535Z,94.70
2018-09-29T03:14:29.564Z,95.10
2018-09-29T03:18:33.581Z,95.50
2018-09-29T03:22:37.774Z,95.50
2018-09-29T03:26:43.082Z,95.60
2018-09-29T03:30:48.041Z,95.60
2018-09-29T03:34:52.287Z,95.80
2018-09-29T03:38:56.437Z,96.40
2018-09-29T03:43:00.552Z,96.20
2018-09-29T03:47:04.661Z,96.50
2018-09-29T03:51:08.868Z,96.00
2018-09-29T03:55:14.337Z,96.20
2018-09-29T03:59:18.698Z,96.30
2018-09-29T04:03:22.768Z,96.80
2018-09-29T04:07:27.220Z,97.70
2018-09-29T04:11:31.256Z,97.90
2018-09-29T04:15:35.413Z,98.50
2018-09-29T04:19:39.465Z,98.50
2018-09-29T04:23:44.084Z,97.80
2018-09-29T04:27:48.303Z,98.00
2018-09-29T04:31:52.430Z,98.10
2018-09-29T04:35:56.854Z,98.20
2018-09-29T04:40:01.215Z,97.40
2018-09-29T04:44:05.442Z,97.10
2018-09-29T04:48:10.541Z,96.20
2018-09-29T04:52:14.941Z,96.70
2018-09-29T04:56:19.915Z,96.30
2018-09-29T05:00:24.031Z,96.60
2018-09-29T05:04:28.259Z,96.10
2018-09-29T05:08:32.439Z,95.70
2018-09-29T05:12:36.482Z,95.20
2018-09-29T05:16:40.560Z,95.00
2018-09-29T05:20:45.920Z,94.50
2018-09-29T05:24:50.256Z,94.00
2018-09-29T05:28:54.368Z,93.90
2018-09-29T05:32:59.673Z,93.80
2018-09-29T05:37:03.686Z,93.60
2018-09-29T05:41:07.879Z,93.80
2018-09-29T05:45:15.790Z,93.80
2018-09-29T05:49:20.116Z,93.80
2018-09-29T05:53:24.358Z,93.30
2018-09-29T05:57:28.410Z,92.90
2018-09-29T06:01:32.554Z,92.60
2018-09-29T06:05:36.876Z,92.20
2018-09-29T06:09:41.815Z,91.90
2018-09-29T06:13:46.456Z,91.60
2018-09-29T06:17:50.869Z,91.50
2018-09-29T06:21:54.947Z,91.50
2018-09-29T06:25:59.502Z,91.70
2018-09-29T06:30:03.803Z,91.20
2018-09-29T06:34:07.970Z,91.80
2018-09-29T06:38:14.136Z,91.80
2018-09-29T06:42:18.440Z,91.90
2018-09-29T06:46:22.716Z,91.80
2018-09-29T06:50:26.772Z,92.00
2018-09-29T06:54:30.900Z,92.20
2018-09-29T06:58:35.067Z,92.10
2018-09-29T07:02:39.169Z,91.40
2018-09-29T07:06:44.013Z,91.40
2018-09-29T07:10:48.321Z,90.70
2018-09-29T07:14:52.592Z,90.70
2018-09-29T07:18:56.691Z,90.30
2018-09-29T07:23:01.039Z,89.20
2018-09-29T07:27:06.992Z,87.20
2018-09-29T07:31:11.025Z,87.00
2018-09-29T07:35:15.207Z,87.10
2018-09-29T07:39:19.463Z,87.70
2018-09-29T07:43:23.739Z,86.50
2018-09-29T07:47:27.959Z,87.40
2018-09-29T07:51:32.207Z,87.00
2018-09-29T07:55:36.386Z,87.10
2018-09-29T07:59:40.591Z,85.40
2018-09-29T08:03:45.047Z,86.50
2018-09-29T08:07:49.326Z,87.10
2018-09-29T08:11:53.753Z,84.00
2018-09-29T08:15:57.803Z,85.00
2018-09-29T08:20:01.951Z,83.00
2018-09-29T08:24:06.283Z,81.70
2018-09-29T08:28:41.581Z,82.80
2018-09-29T08:32:45.856Z,79.30
2018-09-29T08:36:49.989Z,77.80
2018-09-29T08:40:54.176Z,77.20
2018-09-29T08:44:58.412Z,79.20
2018-09-29T08:49:02.597Z,77.80
2018-09-29T08:53:07.064Z,73.80
2018-09-29T08:57:11.330Z,75.70
2018-09-29T09:01:15.485Z,72.40
2018-09-29T09:05:19.595Z,71.10
2018-09-29T09:09:23.720Z,70.70
2018-09-29T09:13:27.924Z,70.40
2018-09-29T09:17:32.123Z,69.10
2018-09-29T09:21:36.501Z,68.00
2018-09-29T09:25:40.861Z,68.80
2018-09-29T09:29:45.117Z,65.20
2018-09-29T09:33:49.372Z,63.30
2018-09-29T09:37:53.464Z,61.50
2018-09-29T09:41:57.620Z,60.80
2018-09-29T09:46:01.835Z,62.00
2018-09-29T09:50:06.173Z,62.60
2018-09-29T09:54:10.426Z,60.60
2018-09-29T09:58:14.976Z,60.20
2018-09-29T10:02:24.590Z,65.00
2018-09-29T10:06:28.747Z,63.80
2018-09-29T10:10:34.213Z,65.10
2018-09-29T10:14:38.606Z,65.80
2018-09-29T10:18:42.698Z,66.50
2018-09-29T10:22:46.839Z,66.20
2018-09-29T10:26:51.139Z,66.00
2018-09-29T10:30:55.272Z,67.80
2018-09-29T10:34:59.459Z,70.50
2018-09-29T10:39:05.040Z,71.00
2018-09-29T10:43:09.505Z,69.00
2018-09-29T10:47:14.048Z,70.30
2018-09-29T10:51:18.536Z,69.80
2018-09-29T10:55:22.716Z,70.30
2018-09-29T10:59:26.835Z,69.40
2018-09-29T11:03:30.933Z,71.30
2018-09-29T11:07:35.295Z,72.50
2018-09-29T11:11:39.421Z,69.40
2018-09-29T11:15:43.595Z,69.60
2018-09-29T11:19:47.696Z,69.50
2018-09-29T11:23:51.808Z,71.10
2018-09-29T11:27:55.999Z,69.30
2018-09-29T11:31:59.968Z,69.50
2018-09-29T11:36:04.750Z,70.00
2018-09-29T11:40:09.420Z,70.80
2018-09-29T11:44:13.521Z,67.10
2018-09-29T11:48:17.625Z,69.20
2018-09-29T11:52:21.767Z,69.00
2018-09-29T11:56:26.095Z,68.90
2018-09-29T12:00:30.346Z,67.70
2018-09-29T12:04:34.980Z,69.30
2018-09-29T12:08:39.141Z,68.20
2018-09-29T12:12:43.571Z,65.90
2018-09-29T12:16:48.001Z,66.30
2018-09-29T12:20:52.559Z,63.90
2018-09-29T12:24:56.815Z,65.10
2018-09-29T12:29:00.888Z,64.70
2018-09-29T12:33:06.232Z,65.00
2018-09-29T12:37:10.645Z,66.60
2018-09-29T12:41:14.649Z,68.40
2018-09-29T12:45:19.021Z,67.50
2018-09-29T12:49:23.067Z,68.50
2018-09-29T12:53:27.242Z,69.00
2018-09-29T12:57:31.346Z,68.90
2018-09-29T13:01:35.599Z,66.80
2018-09-29T13:05:39.881Z,67.40
2018-09-29T13:09:44.007Z,66.40
2018-09-29T13:13:48.082Z,68.30
2018-09-29T13:17:52.295Z,69.20
2018-09-29T13:21:56.591Z,70.10
2018-09-29T13:26:00.796Z,68.00
2018-09-29T13:30:05.177Z,67.60
2018-09-29T13:34:09.794Z,68.40
2018-09-29T13:38:13.977Z,67.80
2018-09-29T13:42:18.351Z,68.70
2018-09-29T13:46:22.485Z,67.20
2018-09-29T13:50:26.771Z,67.60
2018-09-29T22:18:43.649Z,98.80
2018-09-29T22:22:58.756Z,65.10
2018-09-29T22:27:02.928Z,87.30
2018-09-29T22:31:07.189Z,93.00
2018-09-29T22:35:11.480Z,94.20
2018-09-29T22:39:15.743Z,95.00
2018-09-29T22:43:20.071Z,95.00
2018-09-29T22:47:24.318Z,95.50
2018-09-29T22:51:28.443Z,95.20
2018-09-29T22:55:32.527Z,95.10
2018-09-29T22:59:36.807Z,95.00
2018-09-29T23:03:41.495Z,95.80
2018-09-29T23:07:46.322Z,95.60
2018-09-29T23:11:50.527Z,95.10
2018-09-29T23:15:54.765Z,95.30
2018-09-29T23:19:59.091Z,95.10
2018-09-29T23:24:03.295Z,94.70
2018-09-29T23:28:07.607Z,94.20
2018-09-29T23:32:12.195Z,92.00
2018-09-29T23:36:19.209Z,90.90
2018-09-29T23:40:23.452Z,90.80
2018-09-29T23:44:27.599Z,91.00
2018-09-29T23:48:31.769Z,91.10
2018-09-29T23:52:36.049Z,90.90
2018-09-29T23:56:41.152Z,90.80
